Latest Weather Observations for Lajamanu

IDD60801

Issued at 7:11 pm CST Sunday 19 August 2018 (issued every 10 minutes, with the page automatically refreshed every 10 minutes)

About weather observations | Map of weather stations | Latest weather observations for NT | Other Formats
Station Details ID: 014829 Name: LAJAMANU AIRPORT Lat: -18.33 Lon: 130.64 Height: 315.6 m
Data from the previous 72 hours. | See also: Recent months at Lajamanu
Date/Time
CST
Temp
°C
App
Temp
°C
Dew
Point
°C
Rel
Hum
%
Delta-T
°C
Wind Press
QNH
hPa
Press
MSL
hPa
Rain since
9am
mm
Dir  Spd
km/h
Gust
km/h
Spd
kts
Gust
kts
19/07:00pm 25.7 19.2 -8.2 10 13.7 ESE 19 26 10 14 1019.0 1018.0 0.0
19/06:30pm 27.1 20.0 -8.5 9 14.5 ESE 22 32 12 17 1018.5 1017.5 0.0
19/06:00pm 28.5 20.6 -8.9 8 15.3 ESE 26 39 14 21 1018.2 1017.1 0.0
19/05:30pm 29.6 22.1 -8.1 8 15.8 ESE 24 35 13 19 1018.0 1016.9 0.0
19/05:00pm 30.3 22.0 -9.3 7 16.4 ESE 28 39 15 21 1017.8 1016.7 0.0
19/04:30pm 30.3 22.5 -7.6 8 16.1 E 26 39 14 21 1017.7 1016.6 0.0
19/04:00pm 31.1 23.2 -8.7 7 16.8 ESE 26 37 14 20 1017.7 1016.6 0.0
19/03:30pm 31.1 23.0 -7.0 8 16.5 E 28 43 15 23 1017.8 1016.7 0.0
19/03:00pm 31.3 23.6 -6.8 8 16.6 E 26 41 14 22 1018.1 1017.0 0.0
19/02:30pm 30.9 22.0 -7.1 8 16.4 E 32 44 17 24 1018.4 1017.4 0.0
19/02:00pm 30.4 21.5 -7.5 8 16.2 E 32 50 17 27 1018.9 1017.9 0.0
19/01:54pm 30.6 21.7 -7.4 8 16.3 E 32 50 17 27 1019.0 1018.0 0.0
19/01:30pm 30.1 20.6 -7.7 8 16.0 E 35 50 19 27 1019.3 1018.3 0.0
19/01:14pm 29.6 20.8 -6.6 9 15.6 E 32 50 17 27 1019.7 1018.6 0.0
19/01:00pm 29.9 21.8 -6.4 9 15.7 E 28 44 15 24 1020.0 1018.9 0.0
19/12:30pm 28.8 20.3 -7.2 9 15.2 E 30 50 16 27 1020.5 1019.4 0.0
19/12:06pm 28.0 19.2 -6.4 10 14.7 E 32 50 17 27 1020.8 1019.7 0.0
19/12:00pm 27.9 19.4 -6.5 10 14.6 E 30 44 16 24 1021.0 1019.9 0.0
19/11:45am 27.6 19.1 -6.7 10 14.5 E 30 48 16 26 1021.2 1020.2 0.0
19/11:30am 27.1 18.1 -5.9 11 14.0 E 33 44 18 24 1021.3 1020.3 0.0
19/11:00am 26.0 17.9 -6.7 11 13.6 E 28 43 15 23 1021.7 1020.7 0.0
19/10:30am 24.4 15.5 -6.8 12 12.7 ESE 32 46 17 25 1022.1 1021.1 0.0
19/10:00am 23.3 14.5 -6.6 13 12.2 ESE 32 44 17 24 1022.1 1021.1 0.0
19/09:30am 20.9 13.4 -8.5 13 11.2 ESE 24 33 13 18 1022.2 1021.2 0.0
19/09:00am 19.3 12.1 -9.8 13 10.6 SE 22 35 12 19 1021.9 1020.9 0.0
19/08:30am 17.3 10.9 -11.3 13 9.9 SE 17 24 9 13 1021.5 1020.5 0.0
19/08:00am 15.1 9.0 -13.1 13 9.1 ESE 15 20 8 11 1021.2 1020.2 0.0
19/07:30am 13.2 7.4 -13.7 14 8.3 ESE 13 19 7 10 1020.5 1019.4 0.0
19/07:00am 11.9 6.2 -13.1 16 7.7 ESE 13 20 7 11 1020.1 1019.0 0.0
19/06:30am 9.2 3.8 -13.2 19 6.6 SE 11 15 6 8 1019.3 1018.3 0.0
19/06:00am 9.0 4.0 -14.0 18 6.7 SE 9 11 5 6 1018.6 1017.6 0.0
19/05:30am 9.2 4.2 -13.8 18 6.7 SE 9 9 5 5 1018.2 1017.1 0.0
19/05:00am 9.7 5.0 -14.9 16 7.1 SE 7 9 4 5 1017.9 1016.8 0.0
19/04:30am 10.5 5.8 -15.0 15 7.4 SE 7 9 4 5 1017.7 1016.6 0.0
19/04:00am 9.6 4.9 -14.2 17 6.9 SSE 7 9 4 5 1017.8 1016.7 0.0
19/03:30am 9.9 5.4 -15.5 15 7.2 S 6 6 3 3 1017.7 1016.6 0.0
19/03:00am 10.5 6.0 -15.0 15 7.4 SSE 6 7 3 4 1017.7 1016.6 0.0
19/02:30am 10.8 6.7 -14.8 15 7.5 SE 4 6 2 3 1017.7 1016.6 0.0
19/02:00am 10.3 6.9 -15.2 15 7.3 CALM 0 0 0 0 1017.7 1016.6 0.0
19/01:30am 12.0 8.6 -15.5 13 8.1 CALM 0 0 0 0 1017.7 1016.6 0.0
19/01:00am 12.9 8.4 -14.8 13 8.4 SSE 6 9 3 5 1017.7 1016.6 0.0
19/12:30am 13.8 9.3 -15.1 12 8.8 SE 6 7 3 4 1017.9 1016.8 0.0
19/12:00am 14.3 9.6 -14.7 12 9.0 SSE 7 9 4 5 1017.9 1016.8 0.0
 
Date/Time
CST
Temp
°C
App
Temp
°C
Dew
Point
°C
Rel
Hum
%
Delta-T
°C
Wind Press
QNH
hPa
Press
MSL
hPa
Rain since
9am
mm
Dir  Spd
km/h
Gust
km/h
Spd
kts
Gust
kts
18/11:30pm 14.6 9.9 -14.4 12 9.1 SSE 7 9 4 5 1017.9 1016.8 0.0
18/11:00pm 14.6 9.9 -14.4 12 9.1 S 7 9 4 5 1017.8 1016.7 0.0
18/10:30pm 15.3 10.6 -15.0 11 9.4 SSE 7 9 4 5 1017.7 1016.6 0.0
18/10:00pm 16.4 11.4 -14.1 11 9.9 SSE 9 9 5 5 1017.7 1016.6 0.0
18/09:30pm 16.8 12.1 -14.9 10 10.1 SE 7 9 4 5 1017.6 1016.5 0.0
18/09:00pm 17.1 12.4 -14.7 10 10.2 SE 7 9 4 5 1017.3 1016.2 0.0
18/08:30pm 17.6 12.9 -14.3 10 10.4 SE 7 9 4 5 1017.1 1016.0 0.0
18/08:00pm 18.5 13.8 -14.9 9 10.9 ESE 7 9 4 5 1016.8 1015.7 0.0
18/07:30pm 19.8 14.7 -15.4 8 11.6 E 9 11 5 6 1016.4 1015.3 0.0
18/07:00pm 23.6 18.5 -16.0 6 13.5 E 9 13 5 7 1016.0 1015.0 0.0
18/06:30pm 27.2 20.9 -15.7 5 15.4 E 15 20 8 11 1015.6 1014.6 0.0
18/06:00pm 29.3 23.1 -14.2 5 16.4 ESE 15 20 8 11 1015.3 1014.2 0.0
18/05:30pm 30.3 23.8 -13.5 5 16.9 ESE 17 28 9 15 1015.2 1014.1 0.0
18/05:00pm 30.6 24.5 -13.3 5 17.0 SE 15 24 8 13 1015.1 1014.0 0.0
18/04:30pm 30.7 25.2 -15.9 4 17.3 ESE 11 20 6 11 1015.0 1013.9 0.0
18/04:00pm 31.2 24.0 -15.6 4 17.6 ESE 20 30 11 16 1015.0 1013.9 0.0
18/03:30pm 31.8 25.2 -15.2 4 17.9 ESE 17 32 9 17 1015.2 1014.1 0.0
18/03:00pm 31.5 25.4 -12.6 5 17.4 E 15 30 8 16 1015.3 1014.2 0.0
18/02:30pm 31.0 24.5 -13.0 5 17.2 E 17 26 9 14 1015.6 1014.6 0.0
18/02:00pm 31.3 24.6 -10.5 6 17.1 SSE 19 32 10 17 1015.8 1014.8 0.0
18/01:30pm 30.8 23.9 -10.9 6 16.8 SE 20 32 11 17 1016.3 1015.2 0.0
18/01:00pm 30.3 23.0 -11.2 6 16.6 ENE 22 30 12 16 1017.0 1015.9 0.0
18/12:30pm 30.8 23.5 -10.9 6 16.8 E 22 35 12 19 1017.6 1016.5 0.0
18/12:00pm 30.2 22.9 -11.3 6 16.5 ENE 22 35 12 19 1018.0 1016.9 0.0
18/11:30am 29.4 22.4 -11.9 6 16.2 ENE 20 32 11 17 1018.4 1017.4 0.0
18/11:00am 28.5 21.2 -10.6 7 15.5 ENE 22 32 12 17 1018.7 1017.7 0.0
18/10:30am 27.7 20.0 -11.2 7 15.1 ENE 24 35 13 19 1018.9 1017.9 0.0
18/10:00am 26.4 19.7 -10.5 8 14.4 ENE 19 26 10 14 1018.8 1017.8 0.0
18/09:30am 24.4 18.4 -11.9 8 13.5 ENE 15 20 8 11 1018.6 1017.6 0.0
18/09:00am 22.3 16.2 -12.1 9 12.4 E 15 19 8 10 1018.6 1017.6 0.0
18/08:30am 19.2 14.3 -11.9 11 10.9 E 9 13 5 7 1018.2 1017.1 0.0
18/08:22am 17.3 13.1 -10.4 14 9.8 ESE 6 9 3 5 1018.2 1017.1 0.0
18/08:00am 12.1 8.0 -8.9 22 7.2 SE 6 6 3 3 1017.9 1016.8 0.0
18/07:30am 9.6 5.3 -9.4 25 6.2 SE 7 9 4 5 1017.5 1016.4 0.0
18/07:00am 9.7 5.4 -11.0 22 6.5 SE 6 6 3 3 1017.2 1016.1 0.0
18/06:30am 10.2 6.0 -10.0 23 6.5 S 6 7 3 4 1016.8 1015.7 0.0
18/06:00am 9.8 5.4 -9.8 24 6.3 S 7 9 4 5 1016.4 1015.3 0.0
18/05:30am 10.8 7.8 -9.5 23 6.7 CALM 0 0 0 0 1016.0 1015.0 0.0
18/05:00am 10.5 6.2 -9.2 24 6.5 S 7 7 4 4 1015.8 1014.8 0.0
18/04:30am 11.0 6.7 -8.8 24 6.7 SE 7 7 4 4 1015.7 1014.7 0.0
18/04:00am 10.6 6.5 -7.1 28 6.2 S 7 7 4 4 1015.7 1014.7 0.0
18/03:30am 10.6 7.8 -6.7 29 6.1 CALM 0 0 0 0 1015.7 1014.7 0.0
18/03:00am 11.2 7.2 -7.6 26 6.5 SSE 6 7 3 4 1015.6 1014.6 0.0
18/02:30am 12.1 8.2 -6.8 26 6.8 SE 6 7 3 4 1015.7 1014.7 0.0
18/02:00am 12.1 8.1 -5.8 28 6.6 SSE 7 9 4 5 1015.9 1014.9 0.0
18/01:30am 12.8 8.9 -6.2 26 7.0 SSE 6 7 3 4 1015.9 1014.9 0.0
18/01:00am 13.8 10.0 -5.3 26 7.2 SSE 6 7 3 4 1016.2 1015.1 0.0
18/12:30am 14.0 10.0 -5.2 26 7.3 SSE 7 7 4 4 1016.3 1015.2 0.0
18/12:00am 14.5 11.0 -5.8 24 7.6 ESE 4 6 2 3 1016.2 1015.1 0.0
 
Date/Time
CST
Temp
°C
App
Temp
°C
Dew
Point
°C
Rel
Hum
%
Delta-T
°C
Wind Press
QNH
hPa
Press
MSL
hPa
Rain since
9am
mm
Dir  Spd
km/h
Gust
km/h
Spd
kts
Gust
kts
17/11:30pm 16.4 12.4 -6.0 21 8.6 ESE 7 7 4 4 1016.0 1015.0 0.0
17/11:00pm 17.9 13.6 -5.3 20 9.2 E 9 13 5 7 1015.9 1014.9 0.0
17/10:30pm 18.2 13.8 -5.8 19 9.4 E 9 11 5 6 1015.7 1014.7 0.0
17/10:00pm 18.7 14.3 -6.1 18 9.7 ESE 9 11 5 6 1015.6 1014.6 0.0
17/09:30pm 18.6 15.5 -6.2 18 9.7 E 2 6 1 3 1015.4 1014.3 0.0
17/09:00pm 19.7 15.7 -6.0 17 10.2 E 7 9 4 5 1015.2 1014.1 0.0
17/08:30pm 20.8 17.0 -5.9 16 10.7 ESE 6 7 3 4 1014.8 1013.7 0.0
17/08:00pm 21.1 17.0 -6.5 15 11.0 ESE 7 9 4 5 1014.4 1013.3 0.0
17/07:30pm 21.9 17.8 -6.8 14 11.5 SE 7 9 4 5 1013.8 1012.7 0.0
17/07:00pm 23.6 19.1 -6.4 13 12.3 ESE 9 9 5 5 1013.3 1012.2 0.0
17/06:30pm 26.7 22.8 -6.2 11 13.9 SE 6 9 3 5 1013.0 1011.9 0.0
17/06:00pm 29.2 24.1 -5.5 10 15.2 ESE 13 17 7 9 1012.8 1011.6 0.0
17/05:30pm 29.8 25.0 -6.4 9 15.7 SE 11 15 6 8 1012.5 1011.4 0.0
17/05:00pm 30.7 26.7 -5.8 9 16.1 NE 7 19 4 10 1012.2 1011.1 0.0
17/04:30pm 30.3 25.9 -6.1 9 15.9 S 9 20 5 11 1012.0 1010.9 0.0
17/04:00pm 30.5 25.3 -5.9 9 16.0 SE 13 20 7 11 1012.1 1011.0 0.0
17/03:30pm 30.3 26.3 -6.1 9 15.9 SSW 7 17 4 9 1012.2 1011.1 0.0
17/03:00pm 30.9 26.5 -5.6 9 16.2 E 9 17 5 9 1012.5 1011.4 0.0
17/02:30pm 29.9 25.8 -6.4 9 15.7 WSW 7 13 4 7 1013.0 1011.9 0.0
17/02:00pm 29.8 25.3 -6.4 9 15.7 WNW 9 15 5 8 1013.3 1012.2 0.0
17/01:30pm 30.3 24.7 -6.1 9 15.9 NE 15 24 8 13 1013.8 1012.7 0.0
17/01:00pm 29.7 24.1 -6.5 9 15.6 N 15 24 8 13 1014.2 1013.1 0.0
17/12:30pm 29.5 23.9 -6.7 9 15.5 NE 15 30 8 16 1014.8 1013.7 0.0
17/12:00pm 28.9 23.6 -7.1 9 15.3 E 13 20 7 11 1015.3 1014.2 0.0
17/11:30am 29.2 24.1 -5.5 10 15.2 ENE 13 20 7 11 1015.9 1014.9 0.0
17/11:00am 28.1 22.1 -6.3 10 14.7 ENE 17 22 9 12 1016.4 1015.3 0.0
17/10:30am 27.2 21.5 -7.0 10 14.3 ENE 15 26 8 14 1016.5 1015.4 0.0
17/10:00am 25.4 20.5 -7.2 11 13.4 ENE 11 17 6 9 1016.6 1015.5 0.0
17/09:30am 23.3 18.0 -7.7 12 12.3 ENE 13 19 7 10 1016.4 1015.3 0.0
17/09:00am 21.1 15.7 -8.4 13 11.3 ENE 13 19 7 10 1016.2 1015.1 0.0
17/08:59am 20.9 15.9 -8.5 13 11.2 ENE 11 19 6 10 1016.3 1015.2 0.0
17/08:30am 15.8 12.7 -5.8 22 8.3 SW 2 7 1 4 1015.7 1014.7 0.0
17/08:00am 12.5 9.4 -6.0 27 6.8 NW 2 6 1 3 1015.6 1014.6 0.0
17/07:30am 10.5 6.1 -5.5 32 5.8 NNW 9 15 5 8 1015.2 1014.1 0.0
17/07:00am 9.4 5.3 -6.4 32 5.5 NW 7 11 4 6 1015.0 1013.9 0.0
17/06:30am 9.9 5.9 -6.0 32 5.6 WNW 7 13 4 7 1014.7 1013.6 0.0
17/06:00am 10.1 6.1 -5.4 33 5.6 NW 7 9 4 5 1014.4 1013.3 0.0
17/05:30am 9.3 6.2 -6.1 33 5.4 NW 2 6 1 3 1014.2 1013.1 0.0
17/05:00am 9.7 5.6 -6.2 32 5.6 NNW 7 9 4 5 1014.1 1013.0 0.0
17/04:30am 10.6 6.7 -6.7 29 6.1 NNW 6 9 3 5 1014.0 1012.9 0.0
17/04:00am 11.0 7.2 -5.9 30 6.1 NW 6 7 3 4 1014.1 1013.0 0.0
17/03:30am 11.1 7.3 -5.8 30 6.1 NW 6 7 3 4 1014.2 1013.1 0.0
17/03:00am 11.3 7.4 -6.1 29 6.3 NW 6 7 3 4 1014.3 1013.2 0.0
17/02:30am 11.9 8.1 -6.0 28 6.5 NNW 6 9 3 5 1014.3 1013.2 0.0
17/02:00am 12.0 9.3 -5.9 28 6.5 CALM 0 0 0 0 1014.5 1013.4 0.0
17/01:30am 11.6 8.9 -6.3 28 6.4 CALM 0 0 0 0 1014.7 1013.6 0.0
17/01:00am 12.2 8.8 -5.7 28 6.6 SSE 4 6 2 3 1014.8 1013.7 0.0
17/12:30am 12.9 9.9 -5.1 28 6.8 SE 2 6 1 3 1014.9 1013.8 0.0
17/12:00am 13.0 10.2 -6.5 25 7.1 CALM 0 4 0 2 1015.0 1013.9 0.0
 
Date/Time
CST
Temp
°C
App
Temp
°C
Dew
Point
°C
Rel
Hum
%
Delta-T
°C
Wind Press
QNH
hPa
Press
MSL
hPa
Rain since
9am
mm
Dir  Spd
km/h
Gust
km/h
Spd
kts
Gust
kts
16/11:30pm 14.3 11.3 -4.9 26 7.4 SSW 2 20 1 11 1015.1 1014.0 0.0
16/11:00pm 14.9 12.1 -6.6 22 8.0 CALM 0 0 0 0 1014.8 1013.7 0.0
16/10:30pm 15.5 11.6 -6.7 21 8.3 ENE 6 17 3 9 1014.7 1013.6 0.0
16/10:00pm 17.5 14.5 -5.0 21 8.9 ESE 2 11 1 6 1014.6 1013.5 0.0
16/09:30pm 17.4 13.3 -6.4 19 9.1 ENE 7 9 4 5 1014.5 1013.4 0.0
16/09:00pm 18.1 14.0 -6.6 18 9.5 E 7 11 4 6 1014.3 1013.2 0.0
16/08:30pm 18.8 15.3 -6.0 18 9.8 ESE 4 6 2 3 1014.1 1013.0 0.0
16/08:00pm 19.6 15.6 -7.7 15 10.5 ESE 6 7 3 4 1013.7 1012.6 0.0
16/07:30pm 20.5 16.6 -7.0 15 10.8 ESE 6 7 3 4 1013.4 1012.3 0.0

Other Formats:

Comma delimited format used in spreadsheet applications
http://www.bom.gov.au/fwo/IDD60801/IDD60801.94231.axf

JavaScript Object Notation format (JSON) in row-major order
http://www.bom.gov.au/fwo/IDD60801/IDD60801.94231.json